createdAt,value
2023-01-19T00:00:39.795Z,80.30
2023-01-19T00:03:15.757Z,80.22
2023-01-19T00:05:44.038Z,79.82
2023-01-19T00:08:17.514Z,79.71
2023-01-19T00:10:49.308Z,79.87
2023-01-19T00:13:16.385Z,80.55
2023-01-19T00:15:43.732Z,79.98
2023-01-19T00:18:11.098Z,80.10
2023-01-19T00:20:39.186Z,80.40
2023-01-19T00:23:07.957Z,80.74
2023-01-19T00:25:36.165Z,80.68
2023-01-19T00:28:03.252Z,80.24
2023-01-19T00:30:30.447Z,79.68
2023-01-19T00:32:57.800Z,79.56
2023-01-19T00:35:25.562Z,79.80
2023-01-19T00:37:52.663Z,80.78
2023-01-19T00:40:19.740Z,80.65
2023-01-19T00:42:48.493Z,80.52
2023-01-19T00:45:18.739Z,80.58
2023-01-19T00:47:46.770Z,80.55
2023-01-19T00:50:16.725Z,80.27
2023-01-19T00:52:44.443Z,79.81
2023-01-19T00:55:13.663Z,80.50
2023-01-19T00:57:41.192Z,80.38
2023-01-19T01:00:11.682Z,79.80
2023-01-19T01:02:40.566Z,80.51
2023-01-19T01:05:08.817Z,80.27
2023-01-19T01:07:44.596Z,79.66
2023-01-19T01:10:17.941Z,80.14
2023-01-19T01:12:56.427Z,79.25
2023-01-19T01:15:27.625Z,78.98
2023-01-19T01:17:55.849Z,80.02
2023-01-19T01:20:27.941Z,79.82
2023-01-19T01:22:56.594Z,80.03
2023-01-19T01:25:25.297Z,79.61
2023-01-19T01:27:53.022Z,79.77
2023-01-19T01:30:20.548Z,80.80
2023-01-19T01:32:47.903Z,80.39
2023-01-19T01:35:15.611Z,80.57
2023-01-19T01:37:43.024Z,80.05
2023-01-19T01:40:15.093Z,80.39
2023-01-19T01:42:42.857Z,79.80
2023-01-19T01:45:29.230Z,79.80
2023-01-19T01:48:27.011Z,80.05
2023-01-19T01:51:16.710Z,80.42
2023-01-19T01:53:45.899Z,80.09
2023-01-19T01:56:16.195Z,80.59
2023-01-19T01:58:43.679Z,81.06
2023-01-19T02:01:29.776Z,80.63
2023-01-19T02:03:58.922Z,80.56
2023-01-19T02:06:26.487Z,79.22
2023-01-19T02:09:27.755Z,79.99
2023-01-19T02:12:13.615Z,80.25
2023-01-19T02:14:40.824Z,79.67
2023-01-19T02:17:07.962Z,79.60
2023-01-19T02:19:42.044Z,79.57
2023-01-19T02:22:35.816Z,79.74
2023-01-19T02:25:06.336Z,79.79
2023-01-19T02:27:33.934Z,79.95
2023-01-19T02:30:03.628Z,79.03
2023-01-19T02:32:31.070Z,78.70
2023-01-19T02:34:58.305Z,78.51
2023-01-19T02:37:28.470Z,78.94
2023-01-19T02:39:58.741Z,79.51
2023-01-19T02:42:29.463Z,79.64
2023-01-19T02:44:57.318Z,79.26
2023-01-19T02:47:24.697Z,79.02
2023-01-19T02:49:58.785Z,78.81
2023-01-19T02:52:27.001Z,79.12
2023-01-19T02:55:18.122Z,79.45
2023-01-19T02:58:15.016Z,78.67
2023-01-19T03:00:52.488Z,78.39
2023-01-19T03:03:29.276Z,78.45
2023-01-19T03:06:06.084Z,78.13
2023-01-19T03:09:01.037Z,78.56
2023-01-19T03:11:33.514Z,78.50
2023-01-19T03:14:11.477Z,78.84
2023-01-19T03:16:45.409Z,79.58
2023-01-19T03:19:15.042Z,79.81
2023-01-19T03:21:47.198Z,79.09
2023-01-19T03:24:15.532Z,79.31
2023-01-19T03:26:45.878Z,79.22
2023-01-19T03:29:14.091Z,78.72
2023-01-19T03:31:44.596Z,78.74
2023-01-19T03:34:13.510Z,78.26
2023-01-19T03:36:42.078Z,78.18
2023-01-19T03:39:10.189Z,78.17
2023-01-19T03:41:38.432Z,78.32
2023-01-19T03:44:06.236Z,77.80
2023-01-19T03:46:33.874Z,78.35
2023-01-19T03:49:00.984Z,78.45
2023-01-19T03:51:28.084Z,77.78
2023-01-19T03:53:55.140Z,78.20
2023-01-19T03:56:24.471Z,78.04
2023-01-19T03:58:51.985Z,78.22
2023-01-19T04:01:23.027Z,77.90
2023-01-19T04:03:53.523Z,77.81
2023-01-19T04:06:21.387Z,77.88
2023-01-19T04:08:49.629Z,77.90
2023-01-19T04:11:16.792Z,77.92
2023-01-19T04:13:44.713Z,77.83
2023-01-19T04:16:11.871Z,77.89
2023-01-19T04:18:39.199Z,78.14
2023-01-19T04:21:07.433Z,77.70
2023-01-19T04:23:35.015Z,78.12
2023-01-19T04:26:04.367Z,77.80
2023-01-19T04:28:32.461Z,77.89
2023-01-19T04:30:59.769Z,77.85
2023-01-19T04:33:27.818Z,78.04
2023-01-19T04:35:56.029Z,77.47
2023-01-19T04:38:24.041Z,77.55
2023-01-19T04:40:52.777Z,77.63
2023-01-19T04:43:20.524Z,77.91
2023-01-19T04:45:47.914Z,77.69
2023-01-19T04:48:15.737Z,77.31
2023-01-19T04:50:42.837Z,77.57
2023-01-19T04:53:10.924Z,77.48
2023-01-19T04:55:38.790Z,77.29
2023-01-19T04:58:05.885Z,77.63
2023-01-19T05:00:33.584Z,78.12
2023-01-19T05:03:01.662Z,77.38
2023-01-19T05:05:29.470Z,78.03
2023-01-19T05:07:56.525Z,77.81
2023-01-19T05:10:23.878Z,77.04
2023-01-19T05:12:51.373Z,77.26
2023-01-19T05:15:18.501Z,77.13
2023-01-19T05:17:46.218Z,76.71
2023-01-19T05:20:16.047Z,77.64
2023-01-19T05:22:48.833Z,77.72
2023-01-19T05:25:15.982Z,78.10
2023-01-19T05:27:43.375Z,78.09
2023-01-19T05:30:11.535Z,77.83
2023-01-19T05:32:38.613Z,77.64
2023-01-19T05:35:06.047Z,77.24
2023-01-19T05:37:33.188Z,77.28
2023-01-19T05:40:00.213Z,78.10
2023-01-19T05:42:27.327Z,78.06
2023-01-19T05:44:54.417Z,78.28
2023-01-19T05:47:21.559Z,77.64
2023-01-19T05:49:48.595Z,77.69
2023-01-19T05:52:15.667Z,77.79
2023-01-19T05:54:42.850Z,78.13
2023-01-19T05:57:10.688Z,78.07
2023-01-19T05:59:37.861Z,77.43
2023-01-19T06:02:04.994Z,77.43
2023-01-19T06:04:34.232Z,77.68
2023-01-19T06:07:02.366Z,77.76
2023-01-19T06:09:29.631Z,78.01
2023-01-19T06:11:57.916Z,77.96
2023-01-19T06:14:26.215Z,78.33
2023-01-19T06:16:53.411Z,78.07
2023-01-19T06:19:20.790Z,78.97
2023-01-19T06:21:49.813Z,78.19
2023-01-19T06:24:16.944Z,78.36
2023-01-19T06:26:44.010Z,78.29
2023-01-19T06:29:12.198Z,78.04
2023-01-19T06:31:39.448Z,78.43
2023-01-19T06:34:06.687Z,77.82
2023-01-19T06:36:33.876Z,78.42
2023-01-19T06:39:03.593Z,78.50
2023-01-19T06:41:30.656Z,78.35
2023-01-19T06:43:57.725Z,78.34
2023-01-19T06:46:25.138Z,78.57
2023-01-19T06:48:52.200Z,78.42
2023-01-19T06:51:19.315Z,78.58
2023-01-19T06:53:46.384Z,78.50
2023-01-19T06:56:13.500Z,78.03
2023-01-19T06:58:42.126Z,78.50
2023-01-19T07:01:09.788Z,78.13
2023-01-19T07:03:37.987Z,78.28
2023-01-19T07:06:06.713Z,78.33
2023-01-19T07:08:34.744Z,78.26
2023-01-19T07:11:24.733Z,78.75
2023-01-19T07:13:57.051Z,78.42
2023-01-19T07:16:24.313Z,78.17
2023-01-19T07:18:51.693Z,77.68
2023-01-19T07:21:19.165Z,77.84
2023-01-19T07:23:53.680Z,78.23
2023-01-19T07:26:21.621Z,78.57
2023-01-19T07:28:49.378Z,78.59
2023-01-19T07:31:16.743Z,79.10
2023-01-19T07:33:44.376Z,78.66
2023-01-19T07:36:11.483Z,78.58
2023-01-19T07:38:38.549Z,78.68
2023-01-19T07:41:07.306Z,78.87
2023-01-19T07:43:34.389Z,79.31
2023-01-19T07:46:03.649Z,79.70
2023-01-19T07:48:30.805Z,79.64
2023-01-19T07:51:01.400Z,79.56
2023-01-19T07:53:28.735Z,79.32
2023-01-19T07:55:56.777Z,79.24
2023-01-19T07:58:24.612Z,78.71
2023-01-19T08:00:52.328Z,78.60
2023-01-19T08:03:19.586Z,78.09
2023-01-19T08:05:50.269Z,77.76
2023-01-19T08:08:17.656Z,77.49
2023-01-19T08:10:45.135Z,77.77
2023-01-19T08:13:12.269Z,77.44
2023-01-19T08:15:39.413Z,77.56
2023-01-19T08:18:06.919Z,77.50
2023-01-19T08:20:33.963Z,77.38
2023-01-19T08:23:02.867Z,77.58
2023-01-19T08:25:35.184Z,77.46
2023-01-19T08:28:02.867Z,77.03
2023-01-19T08:30:30.351Z,76.87
2023-01-19T08:33:04.016Z,76.60
2023-01-19T08:35:33.058Z,76.53
2023-01-19T08:38:01.681Z,76.43
2023-01-19T08:40:36.268Z,75.98
2023-01-19T08:43:07.672Z,75.74
2023-01-19T08:45:48.089Z,75.58
2023-01-19T08:48:16.975Z,75.54
2023-01-19T08:50:46.522Z,75.46
2023-01-19T08:53:13.643Z,75.00
2023-01-19T08:55:40.907Z,74.37
2023-01-19T08:58:08.798Z,74.17
2023-01-19T09:00:40.294Z,74.10
2023-01-19T09:03:09.534Z,74.14
2023-01-19T09:05:39.182Z,74.70
2023-01-19T09:08:13.285Z,74.12
2023-01-19T09:10:45.891Z,74.05
2023-01-19T09:13:14.084Z,74.08
2023-01-19T09:15:41.623Z,74.29
2023-01-19T09:18:15.161Z,74.17
2023-01-19T09:20:43.787Z,74.56
2023-01-19T09:23:15.580Z,73.53
2023-01-19T09:25:44.017Z,72.64
2023-01-19T09:28:12.561Z,73.28
2023-01-19T09:30:40.730Z,72.96
2023-01-19T09:33:11.106Z,72.90
2023-01-19T09:35:39.098Z,72.51
2023-01-19T09:38:10.156Z,72.10
2023-01-19T09:40:42.251Z,72.33
2023-01-19T09:43:28.176Z,72.61
2023-01-19T09:45:58.568Z,72.23
2023-01-19T09:48:45.731Z,72.63
2023-01-19T09:51:22.988Z,71.53
2023-01-19T09:53:52.842Z,71.46
2023-01-19T09:56:20.783Z,71.69
2023-01-19T09:58:49.653Z,71.16
2023-01-19T10:01:27.585Z,71.53
2023-01-19T10:04:14.709Z,70.67
2023-01-19T10:06:42.364Z,71.19
2023-01-19T10:09:15.460Z,70.50
2023-01-19T10:11:53.467Z,69.82
2023-01-19T10:14:44.569Z,68.64
2023-01-19T10:17:32.211Z,68.56
2023-01-19T10:20:01.365Z,69.53
2023-01-19T10:22:28.769Z,68.34
2023-01-19T10:24:58.699Z,68.25
2023-01-19T10:27:30.852Z,69.07
2023-01-19T10:29:58.355Z,67.09
2023-01-19T10:32:27.450Z,66.82
2023-01-19T10:34:54.948Z,66.07
2023-01-19T10:37:27.764Z,66.41
2023-01-19T10:39:57.700Z,67.38
2023-01-19T10:42:29.080Z,66.69
2023-01-19T10:44:56.496Z,67.63
2023-01-19T10:47:30.724Z,67.58
2023-01-19T10:49:57.873Z,67.37
2023-01-19T10:52:39.716Z,67.75
2023-01-19T10:55:07.929Z,68.31
2023-01-19T10:57:38.334Z,68.46
2023-01-19T11:00:07.433Z,68.28
2023-01-19T11:02:34.604Z,69.39
2023-01-19T11:05:23.089Z,67.93
2023-01-19T11:07:50.143Z,68.09
2023-01-19T11:10:23.109Z,68.20
2023-01-19T11:13:01.523Z,67.34
2023-01-19T11:15:32.720Z,68.16
2023-01-19T11:18:00.508Z,67.74
2023-01-19T11:20:30.051Z,68.35
2023-01-19T11:23:16.299Z,67.64
2023-01-19T11:25:46.543Z,67.40
2023-01-19T11:28:19.032Z,67.21
2023-01-19T11:30:56.530Z,67.88
2023-01-19T11:33:33.357Z,67.75
2023-01-19T11:36:26.000Z,68.40
2023-01-19T11:38:55.089Z,68.29
2023-01-19T11:41:28.962Z,67.92
2023-01-19T11:44:21.228Z,66.91
2023-01-19T11:46:53.630Z,66.99
2023-01-19T11:49:38.239Z,67.39
2023-01-19T11:52:37.815Z,65.97
2023-01-19T11:55:23.312Z,66.53
2023-01-19T11:57:54.224Z,67.07
2023-01-19T12:00:28.933Z,66.03
2023-01-19T12:03:06.860Z,67.83
2023-01-19T12:05:35.159Z,67.62
2023-01-19T12:08:06.723Z,66.54
2023-01-19T12:10:38.198Z,66.94
2023-01-19T12:13:05.305Z,67.62
2023-01-19T12:15:39.080Z,67.37
2023-01-19T12:18:07.651Z,67.14
2023-01-19T12:20:40.988Z,67.48
2023-01-19T12:23:34.488Z,67.16
2023-01-19T12:26:06.733Z,67.33
2023-01-19T12:28:37.550Z,67.88
2023-01-19T12:31:05.072Z,67.16
2023-01-19T12:33:40.058Z,68.13
2023-01-19T12:36:10.298Z,68.81
2023-01-19T12:38:47.674Z,68.44
2023-01-19T12:41:38.891Z,69.57
2023-01-19T12:44:12.144Z,68.91
2023-01-19T12:47:06.530Z,68.73
2023-01-19T12:49:39.838Z,69.65
2023-01-19T12:52:20.444Z,69.49
2023-01-19T12:54:53.495Z,69.42
2023-01-19T12:57:28.332Z,69.33
2023-01-19T13:00:16.737Z,68.78
2023-01-19T13:02:46.926Z,68.86
2023-01-19T13:05:18.287Z,69.31
2023-01-19T13:08:07.862Z,69.53
2023-01-19T13:10:59.183Z,69.10
2023-01-19T13:13:32.694Z,69.49
2023-01-19T13:16:19.819Z,69.69
2023-01-19T13:18:53.516Z,70.04
2023-01-19T13:21:29.116Z,70.76
2023-01-19T13:24:01.695Z,70.15
2023-01-19T13:26:35.833Z,70.28
2023-01-19T13:29:10.567Z,69.39
2023-01-19T13:31:39.602Z,69.01
2023-01-19T13:34:15.252Z,68.39
2023-01-19T13:36:45.562Z,68.66
2023-01-19T13:39:18.404Z,69.17
2023-01-19T13:41:46.707Z,68.63
2023-01-19T13:44:36.416Z,69.04
2023-01-19T13:47:04.051Z,68.94
2023-01-19T13:49:40.599Z,69.07
2023-01-19T13:52:22.528Z,68.78
2023-01-19T13:54:50.359Z,68.73
2023-01-19T13:57:40.761Z,68.64
2023-01-19T14:00:17.002Z,68.70
2023-01-19T14:03:00.669Z,67.79
2023-01-19T14:05:43.909Z,68.32
2023-01-19T14:08:14.002Z,68.29
2023-01-19T14:10:41.991Z,68.54
2023-01-19T14:13:15.051Z,68.53
2023-01-19T14:15:42.496Z,68.74
2023-01-19T14:18:18.886Z,68.05
2023-01-19T14:21:01.830Z,67.92
2023-01-19T14:23:42.208Z,68.42
2023-01-19T14:26:56.194Z,68.47
2023-01-19T14:29:34.480Z,68.37
2023-01-19T14:32:01.424Z,68.24
2023-01-19T14:34:41.505Z,68.00
2023-01-19T14:37:29.552Z,68.20
2023-01-19T14:40:14.847Z,68.24
2023-01-19T14:42:55.047Z,68.12
2023-01-19T14:45:26.792Z,69.10
2023-01-19T14:47:55.230Z,68.73
2023-01-19T14:50:31.214Z,68.65
2023-01-19T14:53:03.444Z,68.75
2023-01-19T14:55:33.406Z,69.32
2023-01-19T14:58:00.477Z,68.77
2023-01-19T15:00:27.834Z,69.26
2023-01-19T15:02:55.044Z,69.27
2023-01-19T15:05:23.000Z,69.47
2023-01-19T15:07:50.332Z,69.57
2023-01-19T15:10:20.745Z,69.93
2023-01-19T15:12:49.095Z,69.87
2023-01-19T15:15:22.783Z,69.92
2023-01-19T15:17:50.263Z,70.21
2023-01-19T15:20:21.788Z,70.30
2023-01-19T15:22:49.431Z,70.51
2023-01-19T15:25:19.268Z,70.93
2023-01-19T15:27:47.417Z,70.78
2023-01-19T15:30:27.954Z,71.11
2023-01-19T15:32:55.139Z,70.83
2023-01-19T15:35:23.738Z,71.14
2023-01-19T15:37:51.063Z,70.59
2023-01-19T15:40:19.774Z,70.61
2023-01-19T15:42:47.209Z,70.53
2023-01-19T15:45:32.137Z,70.69
2023-01-19T15:48:04.296Z,70.63
2023-01-19T15:50:32.103Z,71.20
2023-01-19T15:52:59.440Z,70.67
2023-01-19T15:55:26.583Z,70.81
2023-01-19T15:57:53.647Z,71.24
2023-01-19T16:00:23.948Z,71.32
2023-01-19T16:02:52.114Z,71.08
2023-01-19T16:05:19.283Z,71.38
2023-01-19T16:07:46.586Z,71.08
2023-01-19T16:10:13.834Z,71.32
2023-01-19T16:12:41.044Z,70.93
2023-01-19T16:15:08.869Z,71.34
2023-01-19T16:17:36.664Z,71.12
2023-01-19T16:20:04.924Z,71.20
2023-01-19T16:22:32.213Z,71.28
2023-01-19T16:24:59.289Z,70.95
2023-01-19T16:27:27.743Z,70.78
2023-01-19T16:29:54.804Z,71.03
2023-01-19T16:32:22.034Z,71.24
2023-01-19T16:34:49.277Z,70.74
2023-01-19T16:37:16.310Z,71.33
2023-01-19T16:39:45.388Z,71.20
2023-01-19T16:42:12.614Z,70.64
2023-01-19T16:44:39.715Z,70.84
2023-01-19T16:47:06.759Z,71.16
2023-01-19T16:49:34.507Z,70.94
2023-01-19T16:52:01.822Z,71.02
2023-01-19T16:54:29.224Z,70.77
2023-01-19T16:56:57.292Z,71.15
2023-01-19T16:59:27.158Z,71.21
2023-01-19T17:01:55.083Z,71.20
2023-01-19T17:04:22.876Z,71.25
2023-01-19T17:06:50.157Z,71.16
2023-01-19T17:09:17.642Z,71.44
2023-01-19T17:11:44.922Z,71.38
2023-01-19T17:14:14.238Z,71.16
2023-01-19T17:16:41.565Z,71.15
2023-01-19T17:19:12.935Z,71.20
2023-01-19T17:21:40.187Z,71.22
2023-01-19T17:24:07.630Z,71.44
2023-01-19T17:26:34.825Z,71.62
2023-01-19T17:29:03.482Z,71.24
2023-01-19T17:31:32.106Z,70.95
2023-01-19T17:33:59.906Z,71.31
2023-01-19T17:36:28.329Z,71.21
2023-01-19T17:38:57.608Z,71.90
2023-01-19T17:41:27.536Z,71.67
2023-01-19T17:43:54.655Z,71.83
2023-01-19T17:46:24.934Z,71.42
2023-01-19T17:48:56.488Z,71.40
2023-01-19T17:51:23.755Z,71.16
2023-01-19T17:53:51.488Z,71.60
2023-01-19T17:56:22.918Z,71.58
2023-01-19T17:58:50.060Z,71.32
2023-01-19T18:01:21.026Z,71.25
2023-01-19T18:03:48.175Z,71.73
2023-01-19T18:06:15.318Z,71.69
2023-01-19T18:08:46.107Z,71.10
2023-01-19T18:11:13.853Z,71.19
2023-01-19T18:13:43.272Z,71.62
2023-01-19T18:16:12.919Z,71.56
2023-01-19T18:18:40.614Z,71.86
2023-01-19T18:21:09.595Z,71.54
2023-01-19T18:23:36.888Z,71.59
2023-01-19T18:26:06.876Z,71.84
2023-01-19T18:28:34.189Z,71.98
2023-01-19T18:31:01.773Z,71.93
2023-01-19T18:33:29.057Z,71.61
2023-01-19T18:35:56.235Z,71.94
2023-01-19T18:38:23.358Z,71.69
2023-01-19T18:41:00.592Z,72.20
2023-01-19T18:43:27.774Z,72.18
2023-01-19T18:45:55.037Z,71.95
2023-01-19T18:48:22.300Z,71.99
2023-01-19T18:50:49.862Z,72.12
2023-01-19T18:53:17.079Z,72.21
2023-01-19T18:55:54.783Z,72.58
2023-01-19T18:58:22.239Z,71.94
2023-01-19T19:00:49.722Z,71.90
2023-01-19T19:03:17.490Z,72.31
2023-01-19T19:05:44.662Z,72.33
2023-01-19T19:08:11.855Z,72.18
2023-01-19T19:10:42.032Z,72.36
2023-01-19T19:13:11.975Z,72.44
2023-01-19T19:15:39.239Z,72.64
2023-01-19T19:18:09.128Z,72.64
2023-01-19T19:20:41.442Z,72.83
2023-01-19T19:23:08.614Z,73.02
2023-01-19T19:25:35.934Z,73.08
2023-01-19T19:28:03.388Z,72.80
2023-01-19T19:30:30.988Z,73.46
2023-01-19T19:32:59.887Z,73.08
2023-01-19T19:35:27.905Z,73.65
2023-01-19T19:37:57.659Z,73.18
2023-01-19T19:40:27.702Z,73.45
2023-01-19T19:42:58.798Z,73.83
2023-01-19T19:45:29.146Z,74.25
2023-01-19T19:47:57.931Z,73.58
2023-01-19T19:50:25.784Z,73.51
2023-01-19T19:52:53.943Z,74.06
2023-01-19T19:55:24.260Z,74.22
2023-01-19T19:57:52.720Z,74.10
2023-01-19T20:00:20.237Z,74.44
2023-01-19T20:02:50.511Z,74.53
2023-01-19T20:05:17.672Z,75.40
2023-01-19T20:07:47.411Z,76.47
2023-01-19T20:10:15.187Z,76.27
2023-01-19T20:12:42.967Z,77.35
2023-01-19T20:15:11.318Z,78.17
2023-01-19T20:17:38.571Z,77.88
2023-01-19T20:20:06.279Z,78.77
2023-01-19T20:22:33.895Z,78.68
2023-01-19T20:25:01.191Z,79.49
2023-01-19T20:27:28.384Z,79.96
2023-01-19T20:29:58.166Z,80.56
2023-01-19T20:32:25.227Z,80.53
2023-01-19T20:34:52.902Z,80.45
2023-01-19T20:37:20.343Z,81.21
2023-01-19T20:39:47.423Z,80.93
2023-01-19T20:42:16.481Z,80.65
2023-01-19T20:44:43.616Z,81.08
2023-01-19T20:47:10.663Z,80.37
2023-01-19T20:49:39.660Z,80.64
2023-01-19T20:52:06.888Z,80.33
2023-01-19T20:54:34.255Z,81.02
2023-01-19T20:57:01.353Z,80.60
2023-01-19T20:59:28.532Z,80.22
2023-01-19T21:01:55.845Z,80.66
2023-01-19T21:04:23.187Z,80.59
2023-01-19T21:06:50.260Z,80.31
2023-01-19T21:09:18.550Z,79.88
2023-01-19T21:11:45.825Z,79.99
2023-01-19T21:14:12.956Z,80.45
2023-01-19T21:16:40.120Z,80.42
2023-01-19T21:19:07.473Z,79.86
2023-01-19T21:21:34.571Z,80.01
2023-01-19T21:24:02.389Z,80.51
2023-01-19T21:26:30.286Z,79.80
2023-01-19T21:28:58.745Z,80.38
2023-01-19T21:31:27.778Z,80.23
2023-01-19T21:33:55.847Z,80.37
2023-01-19T21:36:23.473Z,79.88
2023-01-19T21:38:55.455Z,79.90
2023-01-19T21:41:22.676Z,79.77
2023-01-19T21:43:49.743Z,80.11
2023-01-19T21:46:21.685Z,79.79
2023-01-19T21:48:48.775Z,79.46
2023-01-19T21:51:16.056Z,79.60
2023-01-19T21:53:43.255Z,79.65
2023-01-19T21:56:11.335Z,79.50
2023-01-19T21:58:38.631Z,79.55
2023-01-19T22:01:10.805Z,79.31
2023-01-19T22:03:38.092Z,79.10
2023-01-19T22:06:06.629Z,79.57
2023-01-19T22:08:34.048Z,79.63
2023-01-19T22:11:09.845Z,79.25
2023-01-19T22:13:38.711Z,78.87
2023-01-19T22:16:11.174Z,79.02
2023-01-19T22:18:39.820Z,79.13
2023-01-19T22:21:17.769Z,79.19
2023-01-19T22:23:48.702Z,78.89
2023-01-19T22:26:16.309Z,78.97
2023-01-19T22:28:43.367Z,78.96
2023-01-19T22:31:15.680Z,78.71
2023-01-19T22:33:43.281Z,78.73
2023-01-19T22:36:14.688Z,78.47
2023-01-19T22:38:42.523Z,79.04
2023-01-19T22:41:14.111Z,78.96
2023-01-19T22:43:41.200Z,78.85
2023-01-19T22:46:08.880Z,78.55
2023-01-19T22:48:36.118Z,79.11
2023-01-19T22:51:03.585Z,78.67
2023-01-19T22:53:31.439Z,78.91
2023-01-19T22:55:58.509Z,78.49
2023-01-19T22:58:25.584Z,78.44
2023-01-19T23:00:52.735Z,78.59
2023-01-19T23:03:19.837Z,78.55
2023-01-19T23:05:46.936Z,78.74
2023-01-19T23:08:14.001Z,79.60
2023-01-19T23:10:41.109Z,78.95
2023-01-19T23:13:08.168Z,79.24
2023-01-19T23:15:35.252Z,79.87
2023-01-19T23:18:02.531Z,79.74
2023-01-19T23:20:29.636Z,80.18
2023-01-19T23:22:56.707Z,80.44
2023-01-19T23:25:23.747Z,80.56
2023-01-19T23:27:50.857Z,80.89
2023-01-19T23:30:17.950Z,81.01
2023-01-19T23:32:49.368Z,80.87
2023-01-19T23:35:16.539Z,80.92
2023-01-19T23:37:43.660Z,81.99
2023-01-19T23:40:11.432Z,81.96
2023-01-19T23:42:38.548Z,82.28
2023-01-19T23:45:06.395Z,82.45
2023-01-19T23:47:35.402Z,82.50
2023-01-19T23:50:03.869Z,82.59
2023-01-19T23:52:31.473Z,82.18
2023-01-19T23:54:58.543Z,82.79
2023-01-19T23:57:25.644Z,82.19
2023-01-19T23:59:52.676Z,82.60
